createdAt,value
2022-08-17T00:00:42.700Z,6.70
2022-08-17T00:03:31.920Z,5.80
2022-08-17T00:06:16.862Z,5.90
2022-08-17T00:08:55.794Z,7.80
2022-08-17T00:11:30.942Z,7.00
2022-08-17T00:14:05.740Z,5.90
2022-08-17T00:16:55.922Z,6.00
2022-08-17T00:19:27.063Z,5.60
2022-08-17T00:22:32.500Z,6.70
2022-08-17T00:24:45.859Z,6.80
2022-08-17T00:27:13.980Z,6.50
2022-08-17T00:29:42.374Z,6.40
2022-08-17T00:33:14.542Z,6.30
2022-08-17T00:34:58.595Z,6.20
2022-08-17T00:37:26.608Z,5.30
2022-08-17T00:39:54.890Z,6.20
2022-08-17T00:42:26.362Z,5.40
2022-08-17T00:44:57.181Z,5.80
2022-08-17T00:47:26.135Z,5.50
2022-08-17T00:49:54.215Z,5.60
2022-08-17T00:52:32.635Z,6.10
2022-08-17T00:55:03.087Z,6.40
2022-08-17T00:57:37.299Z,5.90
2022-08-17T01:00:26.827Z,6.90
2022-08-17T01:03:02.433Z,5.50
2022-08-17T01:05:34.201Z,7.00
2022-08-17T01:08:02.712Z,6.00
2022-08-17T01:10:58.416Z,5.60
2022-08-17T01:13:41.365Z,6.10
2022-08-17T01:16:24.993Z,6.10
2022-08-17T01:19:00.554Z,5.70
2022-08-17T01:21:46.737Z,6.00
2022-08-17T01:24:15.926Z,6.20
2022-08-17T01:26:45.668Z,6.10
2022-08-17T01:29:14.577Z,6.10
2022-08-17T01:31:54.316Z,5.90
2022-08-17T01:34:23.109Z,6.00
2022-08-17T01:36:56.914Z,5.40
2022-08-17T01:39:36.032Z,6.70
2022-08-17T01:42:42.284Z,5.20
2022-08-17T01:45:24.107Z,6.20
2022-08-17T01:47:53.886Z,6.60
2022-08-17T01:50:38.108Z,5.70
2022-08-17T01:53:46.237Z,5.20
2022-08-17T01:56:20.912Z,6.30
2022-08-17T01:58:49.581Z,5.60
2022-08-17T02:01:23.337Z,7.80
2022-08-17T02:03:56.114Z,5.20
2022-08-17T02:06:52.770Z,6.10
2022-08-17T02:09:29.967Z,5.90
2022-08-17T02:12:37.880Z,6.00
2022-08-17T02:14:52.596Z,5.50
2022-08-17T02:17:20.724Z,5.90
2022-08-17T02:19:48.651Z,6.00
2022-08-17T02:22:18.479Z,5.30
2022-08-17T02:24:59.360Z,5.10
2022-08-17T02:27:30.037Z,6.20
2022-08-17T02:29:58.615Z,5.60
2022-08-17T02:32:28.652Z,5.60
2022-08-17T02:34:58.741Z,6.00
2022-08-17T02:37:31.557Z,6.10
2022-08-17T02:40:01.102Z,5.80
2022-08-17T02:42:38.323Z,5.60
2022-08-17T02:45:12.958Z,5.60
2022-08-17T02:47:42.668Z,6.00
2022-08-17T02:50:14.689Z,5.70
2022-08-17T02:52:48.839Z,5.90
2022-08-17T02:55:37.508Z,5.90
2022-08-17T02:58:06.017Z,7.00
2022-08-17T03:00:41.174Z,6.30
2022-08-17T03:03:11.217Z,5.60
2022-08-17T03:05:39.581Z,5.60
2022-08-17T03:08:13.303Z,5.70
2022-08-17T03:10:44.069Z,5.20
2022-08-17T03:13:14.919Z,6.10
2022-08-17T03:15:45.732Z,6.20
2022-08-17T03:18:19.241Z,5.70
2022-08-17T03:20:59.446Z,5.30
2022-08-17T03:23:29.585Z,5.80
2022-08-17T03:26:00.196Z,5.60
2022-08-17T03:28:28.512Z,5.60
2022-08-17T03:30:56.564Z,6.30
2022-08-17T03:33:24.657Z,6.10
2022-08-17T03:35:52.830Z,5.40
2022-08-17T03:38:21.991Z,5.90
2022-08-17T03:40:56.437Z,6.70
2022-08-17T03:43:31.420Z,6.40
2022-08-17T03:46:28.726Z,5.90
2022-08-17T03:49:25.367Z,5.70
2022-08-17T03:52:14.266Z,6.00
2022-08-17T03:55:03.877Z,5.70
2022-08-17T03:57:32.828Z,6.50
2022-08-17T04:00:00.731Z,5.50
2022-08-17T04:02:34.382Z,6.00
2022-08-17T04:05:02.522Z,5.60
2022-08-17T04:07:32.091Z,5.00
2022-08-17T04:10:01.067Z,5.40
2022-08-17T04:12:47.921Z,6.00
2022-08-17T04:15:18.363Z,5.70
2022-08-17T04:17:46.672Z,6.00
2022-08-17T04:20:19.128Z,5.70
2022-08-17T04:22:59.938Z,6.30
2022-08-17T04:25:30.415Z,6.10
2022-08-17T04:28:00.341Z,5.80
2022-08-17T04:30:35.504Z,6.00
2022-08-17T04:33:19.428Z,5.40
2022-08-17T04:35:52.192Z,6.00
2022-08-17T04:38:24.528Z,6.20
2022-08-17T04:41:12.965Z,5.40
2022-08-17T04:43:43.199Z,5.10
2022-08-17T04:46:15.541Z,5.70
2022-08-17T04:48:48.222Z,5.20
2022-08-17T04:51:29.014Z,5.40
2022-08-17T04:54:23.908Z,5.30
2022-08-17T04:56:51.921Z,5.30
2022-08-17T04:59:22.655Z,5.60
2022-08-17T05:01:52.645Z,5.70
2022-08-17T05:04:33.879Z,6.80
2022-08-17T05:07:04.734Z,5.90
2022-08-17T05:09:33.124Z,5.60
2022-08-17T05:12:03.075Z,5.30
2022-08-17T05:14:33.336Z,5.80
2022-08-17T05:17:07.430Z,5.50
2022-08-17T05:19:39.505Z,5.50
2022-08-17T05:22:07.784Z,8.20
2022-08-17T05:24:39.028Z,4.90
2022-08-17T05:27:15.087Z,5.40
2022-08-17T05:29:47.152Z,5.20
2022-08-17T05:32:38.357Z,4.90
2022-08-17T05:35:06.442Z,10.00
2022-08-17T05:37:34.419Z,11.00
2022-08-17T05:40:02.664Z,11.10
2022-08-17T05:42:30.780Z,12.70
2022-08-17T05:44:59.160Z,9.90
2022-08-17T05:47:28.836Z,8.80
2022-08-17T05:49:58.723Z,10.50
2022-08-17T05:52:45.951Z,11.90
2022-08-17T05:55:45.261Z,8.80
2022-08-17T05:58:58.673Z,10.80
2022-08-17T06:02:03.108Z,9.10
2022-08-17T06:05:02.819Z,8.30
2022-08-17T06:08:02.731Z,9.20
2022-08-17T06:10:53.499Z,9.00
2022-08-17T06:13:49.450Z,8.10
2022-08-17T06:16:34.009Z,8.60
2022-08-17T06:19:44.074Z,8.40
2022-08-17T06:22:18.665Z,7.30
2022-08-17T06:24:57.920Z,7.10
2022-08-17T06:27:37.928Z,7.60
2022-08-17T06:30:27.231Z,8.80
2022-08-17T06:33:08.620Z,7.80
2022-08-17T06:36:04.976Z,8.20
2022-08-17T06:39:27.482Z,6.80
2022-08-17T06:42:54.929Z,8.40
2022-08-17T06:45:16.614Z,8.00
2022-08-17T06:47:55.728Z,8.80
2022-08-17T06:50:42.729Z,7.40
2022-08-17T06:53:25.907Z,7.80
2022-08-17T06:56:14.228Z,6.40
2022-08-17T06:58:45.028Z,7.60
2022-08-17T07:01:20.826Z,8.40
2022-08-17T07:04:21.472Z,6.70
2022-08-17T07:07:30.040Z,7.10
2022-08-17T07:10:01.644Z,6.60
2022-08-17T07:12:39.584Z,7.00
2022-08-17T07:15:34.159Z,6.90
2022-08-17T07:18:03.990Z,6.60
2022-08-17T07:20:33.554Z,7.60
2022-08-17T07:23:29.360Z,6.40
2022-08-17T07:26:06.865Z,6.90
2022-08-17T07:28:36.078Z,6.90
2022-08-17T07:31:05.241Z,6.80
2022-08-17T07:33:36.932Z,7.00
2022-08-17T07:36:05.884Z,6.80
2022-08-17T07:38:57.159Z,7.10
2022-08-17T07:41:26.836Z,6.30
2022-08-17T07:44:16.370Z,5.80
2022-08-17T07:47:11.612Z,6.40
2022-08-17T07:49:46.869Z,6.60
2022-08-17T07:52:50.357Z,6.10
2022-08-17T07:55:35.597Z,6.00
2022-08-17T07:58:03.691Z,5.90
2022-08-17T08:00:33.734Z,5.80
2022-08-17T08:03:15.676Z,6.40
2022-08-17T08:05:55.272Z,6.20
2022-08-17T08:08:42.857Z,6.00
2022-08-17T08:11:28.848Z,7.00
2022-08-17T08:14:28.593Z,6.10
2022-08-17T08:17:05.282Z,5.70
2022-08-17T08:19:34.563Z,7.40
2022-08-17T08:22:13.287Z,6.40
2022-08-17T08:24:52.157Z,6.50
2022-08-17T08:27:48.901Z,5.60
2022-08-17T08:30:21.701Z,6.40
2022-08-17T08:33:17.450Z,5.50
2022-08-17T08:37:14.295Z,5.50
2022-08-17T08:39:17.851Z,6.90
2022-08-17T08:42:24.987Z,5.30
2022-08-17T08:45:24.114Z,5.90
2022-08-17T08:48:46.146Z,6.30
2022-08-17T08:51:18.486Z,6.30
2022-08-17T08:54:33.755Z,5.80
2022-08-17T08:57:34.710Z,7.10
2022-08-17T09:00:18.126Z,6.10
2022-08-17T09:03:20.347Z,5.50
2022-08-17T09:06:32.613Z,5.80
2022-08-17T09:09:37.547Z,6.10
2022-08-17T09:12:17.009Z,5.80
2022-08-17T09:14:51.713Z,5.90
2022-08-17T09:19:54.221Z,5.20
2022-08-17T09:22:34.405Z,5.30
2022-08-17T09:25:29.049Z,5.70
2022-08-17T09:28:04.118Z,4.70
2022-08-17T09:30:46.766Z,5.40
2022-08-17T09:33:23.272Z,5.00
2022-08-17T09:36:26.184Z,5.40
2022-08-17T09:39:20.468Z,5.40
2022-08-17T09:42:06.748Z,5.90
2022-08-17T09:44:49.011Z,5.20
2022-08-17T09:48:06.059Z,4.60
2022-08-17T09:51:03.793Z,5.10
2022-08-17T09:53:38.134Z,5.40
2022-08-17T09:57:11.518Z,4.80
2022-08-17T10:00:25.196Z,5.10
2022-08-17T10:03:21.334Z,5.70
2022-08-17T10:06:22.231Z,5.00
2022-08-17T10:09:07.527Z,5.00
2022-08-17T10:12:05.835Z,5.40
2022-08-17T10:15:13.556Z,4.40
2022-08-17T10:17:59.892Z,4.70
2022-08-17T10:20:46.233Z,4.90
2022-08-17T10:23:45.220Z,4.70
2022-08-17T10:26:23.237Z,4.90
2022-08-17T10:29:09.660Z,5.30
2022-08-17T10:31:57.883Z,5.20
2022-08-17T10:35:11.445Z,4.90
2022-08-17T10:38:04.247Z,5.90
2022-08-17T10:41:05.972Z,4.80
2022-08-17T10:44:38.799Z,5.10
2022-08-17T10:47:03.964Z,4.90
2022-08-17T10:49:39.265Z,5.00
2022-08-17T10:52:30.619Z,4.40
2022-08-17T10:55:16.646Z,5.40
2022-08-17T10:57:50.310Z,4.20
2022-08-17T11:00:27.051Z,4.60
2022-08-17T11:02:58.133Z,5.00
2022-08-17T11:05:42.904Z,5.80
2022-08-17T11:08:39.555Z,4.40
2022-08-17T11:11:27.210Z,4.70
2022-08-17T11:14:26.129Z,4.40
2022-08-17T11:17:35.360Z,5.10
2022-08-17T11:20:34.505Z,5.00
2022-08-17T11:23:44.899Z,5.50
2022-08-17T11:26:29.754Z,4.70
2022-08-17T11:29:09.112Z,4.70
2022-08-17T11:31:43.503Z,5.00
2022-08-17T11:34:18.915Z,4.60
2022-08-17T11:37:28.046Z,4.90
2022-08-17T11:40:33.909Z,4.20
2022-08-17T11:46:14.220Z,4.50
2022-08-17T11:49:34.159Z,5.10
2022-08-17T11:52:02.148Z,4.90
2022-08-17T11:54:33.266Z,4.20
2022-08-17T11:57:27.583Z,4.80
2022-08-17T12:00:08.489Z,5.10
2022-08-17T12:02:48.518Z,5.00
2022-08-17T12:05:17.163Z,5.30
2022-08-17T12:07:57.525Z,4.70
2022-08-17T12:10:34.474Z,4.30
2022-08-17T12:13:14.968Z,4.50
2022-08-17T12:15:49.837Z,4.60
2022-08-17T12:18:35.892Z,4.60
2022-08-17T12:21:28.915Z,4.90
2022-08-17T12:24:42.641Z,4.60
2022-08-17T12:27:13.266Z,4.20
2022-08-17T12:29:45.276Z,4.40
2022-08-17T12:32:20.331Z,4.10
2022-08-17T12:34:51.749Z,4.90
2022-08-17T12:37:32.201Z,4.70
2022-08-17T12:40:19.872Z,4.90
2022-08-17T12:43:08.726Z,4.30
2022-08-17T12:45:40.194Z,5.10
2022-08-17T12:48:22.037Z,4.90
2022-08-17T12:50:51.685Z,4.90
2022-08-17T12:53:30.251Z,5.00
2022-08-17T12:56:02.017Z,5.40
2022-08-17T12:58:36.181Z,4.40
2022-08-17T13:01:11.851Z,4.70
2022-08-17T13:03:59.823Z,4.50
2022-08-17T13:06:34.107Z,4.80
2022-08-17T13:09:18.934Z,4.70
2022-08-17T13:11:59.601Z,4.10
2022-08-17T13:14:29.020Z,4.00
2022-08-17T13:17:08.330Z,4.60
2022-08-17T13:19:49.717Z,5.10
2022-08-17T13:22:26.014Z,5.00
2022-08-17T13:25:05.554Z,4.80
2022-08-17T13:27:34.461Z,5.30
2022-08-17T13:30:12.228Z,5.00
2022-08-17T13:32:47.177Z,5.10
2022-08-17T13:35:50.271Z,5.50
2022-08-17T13:38:49.593Z,5.20
2022-08-17T13:41:37.839Z,4.60
2022-08-17T13:44:34.676Z,5.10
2022-08-17T13:47:17.383Z,6.10
2022-08-17T13:49:48.950Z,5.10
2022-08-17T13:52:43.744Z,5.10
2022-08-17T13:55:22.817Z,7.70
2022-08-17T13:58:06.552Z,5.30
2022-08-17T14:00:37.024Z,5.60
2022-08-17T14:03:06.417Z,5.40
2022-08-17T14:05:38.170Z,5.30
2022-08-17T14:08:07.269Z,5.20
2022-08-17T14:10:36.676Z,6.20
2022-08-17T14:13:06.746Z,5.20
2022-08-17T14:15:53.976Z,5.50
2022-08-17T14:18:55.557Z,6.30
2022-08-17T14:21:13.831Z,4.90
2022-08-17T14:23:43.625Z,5.50
2022-08-17T14:26:18.353Z,5.00
2022-08-17T14:28:56.293Z,5.40
2022-08-17T14:31:25.351Z,5.20
2022-08-17T14:33:54.828Z,5.50
2022-08-17T14:36:22.910Z,5.90
2022-08-17T14:38:51.175Z,5.30
2022-08-17T14:41:22.310Z,5.20
2022-08-17T14:43:53.584Z,5.40
2022-08-17T14:46:21.874Z,5.50
2022-08-17T14:48:57.189Z,5.00
2022-08-17T14:51:29.984Z,5.00
2022-08-17T14:53:58.486Z,5.10
2022-08-17T14:56:27.345Z,6.20
2022-08-17T14:58:59.982Z,5.20
2022-08-17T15:01:28.427Z,4.70
2022-08-17T15:03:57.338Z,4.80
2022-08-17T15:06:25.631Z,5.20
2022-08-17T15:08:54.411Z,5.30
2022-08-17T15:11:22.686Z,5.80
2022-08-17T15:13:52.080Z,5.10
2022-08-17T15:16:20.876Z,5.80
2022-08-17T15:18:50.261Z,5.80
2022-08-17T15:21:19.139Z,4.90
2022-08-17T15:23:48.051Z,5.00
2022-08-17T15:26:16.895Z,5.10
2022-08-17T15:28:49.932Z,4.60
2022-08-17T15:31:31.890Z,5.10
2022-08-17T15:34:00.903Z,4.70
2022-08-17T15:36:29.190Z,4.60
2022-08-17T15:38:58.805Z,4.70
2022-08-17T15:41:28.366Z,5.00
2022-08-17T15:43:56.883Z,5.10
2022-08-17T15:46:27.043Z,5.20
2022-08-17T15:49:00.664Z,4.90
2022-08-17T15:51:34.576Z,4.90
2022-08-17T15:54:22.526Z,4.90
2022-08-17T15:56:53.083Z,4.90
2022-08-17T15:59:21.981Z,4.70
2022-08-17T16:03:13.775Z,4.80
2022-08-17T16:04:40.864Z,4.50
2022-08-17T16:07:12.667Z,4.40
2022-08-17T16:09:42.173Z,4.30
2022-08-17T16:12:18.775Z,5.00
2022-08-17T16:14:50.276Z,4.50
2022-08-17T16:17:38.798Z,4.60
2022-08-17T16:20:09.525Z,4.90
2022-08-17T16:22:50.981Z,4.30
2022-08-17T16:25:52.218Z,4.60
2022-08-17T16:28:18.361Z,3.70
2022-08-17T16:30:46.378Z,4.50
2022-08-17T16:33:16.839Z,4.70
2022-08-17T16:35:49.052Z,4.30
2022-08-17T16:38:17.245Z,4.20
2022-08-17T16:40:45.249Z,4.50
2022-08-17T16:43:13.907Z,4.30
2022-08-17T16:45:42.419Z,4.40
2022-08-17T16:48:10.538Z,4.00
2022-08-17T16:50:38.988Z,4.30
2022-08-17T16:53:18.456Z,4.60
2022-08-17T16:55:50.333Z,4.70
2022-08-17T16:58:19.133Z,4.20
2022-08-17T17:00:48.921Z,4.50
2022-08-17T17:03:26.335Z,4.80
2022-08-17T17:06:22.850Z,3.80
2022-08-17T17:09:10.880Z,4.20
2022-08-17T17:11:46.576Z,4.20
2022-08-17T17:14:30.308Z,4.30
2022-08-17T17:17:26.744Z,4.20
2022-08-17T17:20:11.703Z,4.40
2022-08-17T17:25:36.013Z,4.30
2022-08-17T17:28:18.158Z,4.90
2022-08-17T17:31:05.956Z,4.40
2022-08-17T17:33:50.721Z,4.60
2022-08-17T17:36:41.822Z,4.60
2022-08-17T17:39:37.099Z,4.80
2022-08-17T17:42:14.371Z,4.50
2022-08-17T17:44:58.097Z,4.50
2022-08-17T17:47:26.820Z,4.20
2022-08-17T17:49:54.944Z,4.80
2022-08-17T17:52:46.444Z,4.20
2022-08-17T17:56:03.863Z,4.70
2022-08-17T17:58:53.055Z,4.50
2022-08-17T18:01:59.626Z,4.90
2022-08-17T18:04:51.334Z,4.70
2022-08-17T18:07:38.210Z,4.80
2022-08-17T18:10:29.656Z,4.30
2022-08-17T18:13:11.843Z,4.60
2022-08-17T18:15:51.749Z,4.40
2022-08-17T18:18:44.836Z,4.60
2022-08-17T18:21:21.398Z,4.70
2022-08-17T18:24:03.752Z,7.00
2022-08-17T18:27:02.343Z,7.30
2022-08-17T18:29:46.104Z,7.30
2022-08-17T18:32:35.516Z,8.60
2022-08-17T18:35:10.321Z,9.50
2022-08-17T18:37:46.682Z,10.00
2022-08-17T18:40:17.962Z,10.10
2022-08-17T18:42:55.106Z,9.40
2022-08-17T18:45:49.239Z,8.60
2022-08-17T18:48:24.581Z,9.40
2022-08-17T18:51:20.303Z,8.60
2022-08-17T18:54:23.721Z,9.20
2022-08-17T18:56:59.555Z,10.20
2022-08-17T18:59:49.754Z,10.50
2022-08-17T19:02:45.981Z,9.90
2022-08-17T19:05:34.022Z,9.60
2022-08-17T19:08:30.179Z,8.60
2022-08-17T19:11:16.085Z,8.90
2022-08-17T19:13:55.077Z,9.70
2022-08-17T19:16:51.002Z,11.00
2022-08-17T19:19:24.551Z,8.90
2022-08-17T19:22:03.006Z,8.60
2022-08-17T19:24:34.770Z,9.00
2022-08-17T19:27:26.065Z,9.70
2022-08-17T19:30:13.576Z,8.30
2022-08-17T19:32:43.018Z,8.40
2022-08-17T19:35:17.346Z,9.20
2022-08-17T19:38:05.707Z,9.70
2022-08-17T19:40:53.976Z,10.70
2022-08-17T19:43:58.146Z,9.10
2022-08-17T19:47:00.854Z,10.40
2022-08-17T19:50:23.682Z,8.90
2022-08-17T19:53:10.395Z,8.90
2022-08-17T19:56:23.240Z,10.00
2022-08-17T19:59:35.947Z,9.10
2022-08-17T20:02:34.752Z,8.80
2022-08-17T20:05:22.563Z,8.80
2022-08-17T20:08:25.262Z,9.50
2022-08-17T20:11:07.346Z,9.80
2022-08-17T20:13:56.205Z,8.40
2022-08-17T20:16:27.032Z,8.60
2022-08-17T20:19:21.634Z,11.60
2022-08-17T20:22:08.446Z,9.30
2022-08-17T20:24:55.094Z,10.00
2022-08-17T20:27:33.637Z,11.60
2022-08-17T20:30:33.589Z,8.50
2022-08-17T20:33:02.831Z,9.20
2022-08-17T20:35:38.138Z,8.80
2022-08-17T20:38:13.062Z,9.10
2022-08-17T20:41:01.516Z,10.20
2022-08-17T20:43:37.177Z,9.30
2022-08-17T20:46:20.622Z,9.00
2022-08-17T20:48:59.650Z,8.90
2022-08-17T20:51:34.963Z,8.80
2022-08-17T20:54:48.468Z,9.80
2022-08-17T20:57:32.941Z,9.90
2022-08-17T21:00:16.455Z,7.90
2022-08-17T21:02:49.916Z,8.20
2022-08-17T21:05:38.774Z,9.90
2022-08-17T21:08:17.209Z,8.50
2022-08-17T21:10:47.383Z,8.20
2022-08-17T21:13:36.040Z,7.00
2022-08-17T21:16:29.508Z,7.70
2022-08-17T21:20:08.199Z,7.20
2022-08-17T21:23:12.046Z,8.20
2022-08-17T21:26:05.931Z,7.70
2022-08-17T21:29:32.398Z,6.80
2022-08-17T21:32:06.270Z,6.90
2022-08-17T21:34:42.577Z,7.70
2022-08-17T21:37:23.416Z,6.40
2022-08-17T21:40:18.495Z,6.70
2022-08-17T21:42:55.842Z,6.30
2022-08-17T21:45:37.713Z,6.10
2022-08-17T21:48:20.011Z,7.20
2022-08-17T21:50:59.443Z,6.40
2022-08-17T21:54:03.644Z,7.40
2022-08-17T21:56:38.785Z,6.70
2022-08-17T21:59:39.047Z,7.20
2022-08-17T22:02:24.915Z,6.00
2022-08-17T22:05:08.258Z,6.00
2022-08-17T22:07:43.179Z,7.50
2022-08-17T22:10:43.745Z,7.10
2022-08-17T22:13:17.977Z,7.60
2022-08-17T22:16:15.335Z,10.80
2022-08-17T22:19:01.071Z,9.30
2022-08-17T22:21:29.378Z,8.20
2022-08-17T22:24:21.597Z,8.60
2022-08-17T22:27:13.265Z,8.20
2022-08-17T22:29:58.481Z,8.10
2022-08-17T22:32:43.512Z,8.10
2022-08-17T22:37:48.094Z,10.70
2022-08-17T22:40:33.783Z,8.70
2022-08-17T22:43:03.662Z,7.80
2022-08-17T22:45:33.679Z,8.80
2022-08-17T22:48:02.500Z,8.80
2022-08-17T22:50:33.357Z,8.20
2022-08-17T22:53:34.596Z,8.60
2022-08-17T22:56:22.942Z,10.30
2022-08-17T22:59:16.535Z,8.50
2022-08-17T23:02:21.066Z,9.10
2022-08-17T23:05:13.202Z,9.30
2022-08-17T23:07:42.556Z,8.60
2022-08-17T23:10:15.101Z,9.20
2022-08-17T23:12:43.415Z,8.10
2022-08-17T23:15:17.163Z,11.60
2022-08-17T23:17:46.351Z,9.10
2022-08-17T23:20:17.902Z,9.30
2022-08-17T23:22:51.677Z,9.40
2022-08-17T23:28:02.163Z,8.30
2022-08-17T23:30:35.745Z,8.90
2022-08-17T23:33:09.188Z,9.40
2022-08-17T23:35:39.335Z,8.10
2022-08-17T23:38:13.899Z,8.90
2022-08-17T23:40:42.124Z,8.80
2022-08-17T23:43:24.060Z,8.30
2022-08-17T23:45:56.213Z,9.30
2022-08-17T23:48:36.010Z,8.90
2022-08-17T23:51:19.090Z,9.50
2022-08-17T23:53:53.171Z,9.10
2022-08-17T23:56:26.076Z,8.90
2022-08-17T23:58:56.028Z,8.80
